createdAt,value
2022-12-08T04:12:31.280Z,98023.28
2022-12-08T04:14:57.882Z,98012.34
2022-12-08T04:17:24.448Z,98017.69
2022-12-08T04:19:50.946Z,98015.97
2022-12-08T04:22:17.521Z,97999.41
2022-12-08T04:24:44.003Z,98015.91
2022-12-08T04:27:10.596Z,98022.66
2022-12-08T04:29:37.098Z,98023.63
2022-12-08T04:32:03.841Z,98003.06
2022-12-08T04:34:30.316Z,97992.81
2022-12-08T04:36:56.763Z,98011.53
2022-12-08T04:39:23.263Z,98002.78
2022-12-08T04:41:49.713Z,98001.88
2022-12-08T04:44:16.153Z,97997.53
2022-12-08T04:46:43.842Z,98003.25
2022-12-08T04:49:10.613Z,98002.31
2022-12-08T04:51:37.177Z,97998.63
2022-12-08T04:54:03.778Z,97997.53
2022-12-08T04:56:30.436Z,97999.13
2022-12-08T04:58:56.958Z,97986.88
2022-12-08T05:01:23.505Z,98008.44
2022-12-08T05:03:50.091Z,97998.94
2022-12-08T05:06:16.682Z,97997.56
2022-12-08T05:08:43.735Z,97981.22
2022-12-08T05:11:12.633Z,97982.38
2022-12-08T05:13:39.156Z,97983.16
2022-12-08T05:16:11.688Z,97982.56
2022-12-08T05:18:39.605Z,98000.81
2022-12-08T05:21:07.213Z,97992.38
2022-12-08T05:23:34.694Z,97979.47
2022-12-08T05:26:01.502Z,97925.19
2022-12-08T05:28:44.229Z,97987.56
2022-12-08T05:31:12.839Z,97992.28
2022-12-08T05:33:40.483Z,97984.25
2022-12-08T05:36:08.071Z,97984.28
2022-12-08T05:38:34.622Z,97988.50
2022-12-08T05:41:01.359Z,97990.00
2022-12-08T05:43:27.876Z,97988.50
2022-12-08T05:45:54.664Z,97984.69
2022-12-08T05:48:21.229Z,97987.41
2022-12-08T05:50:48.999Z,97972.44
2022-12-08T05:53:17.578Z,97984.88
2022-12-08T05:55:44.377Z,97982.97
2022-12-08T05:58:13.929Z,97970.41
2022-12-08T06:00:41.294Z,97976.66
2022-12-08T06:03:08.473Z,97973.97
2022-12-08T06:05:35.738Z,97980.66
2022-12-08T06:08:02.494Z,97971.06
2022-12-08T06:10:29.191Z,97988.88
2022-12-08T06:12:55.682Z,97980.75
2022-12-08T06:15:22.145Z,97959.41
2022-12-08T06:17:48.640Z,97968.44
2022-12-08T06:20:15.345Z,97981.94
2022-12-08T06:22:41.885Z,97956.19
2022-12-08T06:25:10.268Z,97994.16
2022-12-08T06:27:37.060Z,97992.97
2022-12-08T06:30:04.644Z,97998.13
2022-12-08T06:32:31.613Z,97996.66
2022-12-08T06:34:58.342Z,98005.56
2022-12-08T06:37:25.020Z,98014.91
2022-12-08T06:39:51.975Z,98007.94
2022-12-08T06:42:37.245Z,97989.66
2022-12-08T06:45:04.209Z,97982.66
2022-12-08T06:47:30.923Z,98000.63
2022-12-08T06:49:57.829Z,98003.63
2022-12-08T06:52:24.729Z,97996.69
2022-12-08T06:54:51.437Z,97989.06
2022-12-08T06:57:18.646Z,98002.50
2022-12-08T06:59:45.365Z,97989.28
2022-12-08T07:02:12.033Z,98001.00
2022-12-08T07:04:38.806Z,98009.03
2022-12-08T07:07:05.519Z,98015.00
2022-12-08T07:09:32.145Z,98011.25
2022-12-08T07:11:58.903Z,98020.09
2022-12-08T07:14:25.588Z,98012.53
2022-12-08T07:16:52.680Z,98011.47
2022-12-08T07:19:19.406Z,98024.31
2022-12-08T07:21:46.167Z,98020.50
2022-12-08T07:24:13.402Z,98012.63
2022-12-08T07:26:41.030Z,98018.50
2022-12-08T07:29:08.583Z,98011.09
2022-12-08T07:31:35.338Z,98010.59
2022-12-08T07:34:02.051Z,98008.19
2022-12-08T07:36:28.833Z,98010.22
2022-12-08T07:38:55.663Z,98001.88
2022-12-08T07:41:24.427Z,98001.44
2022-12-08T07:43:52.181Z,98013.41
2022-12-08T07:46:20.917Z,98009.25
2022-12-08T07:48:47.654Z,98017.19
2022-12-08T07:51:15.868Z,98005.09
2022-12-08T07:53:48.553Z,97996.72
2022-12-08T07:56:20.549Z,97999.84
2022-12-08T07:58:47.275Z,98003.09
2022-12-08T08:01:24.460Z,97995.75
2022-12-08T08:03:51.710Z,97993.31
2022-12-08T08:06:18.439Z,97999.03
2022-12-08T08:08:45.179Z,98009.34
2022-12-08T08:11:17.401Z,97993.47
2022-12-08T08:13:48.166Z,98002.16
2022-12-08T08:16:18.586Z,97999.13
2022-12-08T08:18:48.808Z,98002.16
2022-12-08T08:21:43.697Z,98002.81
2022-12-08T08:24:02.443Z,98003.28
2022-12-08T08:26:29.053Z,97994.06
2022-12-08T08:28:55.831Z,98006.19
2022-12-08T08:31:27.077Z,98012.72
2022-12-08T08:33:54.136Z,98012.19
2022-12-08T08:36:22.150Z,98007.19
2022-12-08T08:38:48.934Z,98009.72
2022-12-08T08:41:15.702Z,98014.50
2022-12-08T08:43:42.919Z,98010.34
2022-12-08T08:46:10.336Z,98012.22
2022-12-08T08:48:37.780Z,98013.47
2022-12-08T08:51:14.260Z,98013.03
2022-12-08T08:53:42.411Z,98005.56
2022-12-08T08:56:11.403Z,97998.66
2022-12-08T08:58:38.129Z,98003.28
2022-12-08T09:01:04.891Z,98005.91
2022-12-08T09:03:31.726Z,98009.38
2022-12-08T09:05:58.557Z,98017.97
2022-12-08T09:08:25.637Z,98003.09
2022-12-08T09:10:52.385Z,97998.41
2022-12-08T09:13:19.096Z,98000.22
2022-12-08T09:15:45.895Z,98004.50
2022-12-08T09:18:12.678Z,97996.56
2022-12-08T09:20:39.435Z,97999.66
2022-12-08T09:23:06.187Z,97997.00
2022-12-08T09:25:32.894Z,97996.34
2022-12-08T09:27:59.574Z,98004.78
2022-12-08T09:30:26.397Z,98001.22
2022-12-08T09:32:53.183Z,97984.34
2022-12-08T09:35:19.870Z,97993.66
2022-12-08T09:37:46.639Z,97997.75
2022-12-08T09:40:20.230Z,97994.66
2022-12-08T09:43:09.898Z,97987.50
2022-12-08T09:45:38.066Z,97996.38
2022-12-08T09:48:25.422Z,97990.91
2022-12-08T09:50:56.544Z,97980.13
2022-12-08T09:53:39.372Z,97990.47
2022-12-08T09:56:15.650Z,97985.19
2022-12-08T09:59:04.079Z,97978.50
2022-12-08T10:01:38.377Z,97974.03
2022-12-08T10:04:16.061Z,97973.88
2022-12-08T10:06:47.330Z,97978.38
2022-12-08T10:09:35.866Z,97975.16
2022-12-08T10:12:30.314Z,97987.00
2022-12-08T10:15:24.995Z,97984.47
2022-12-08T10:17:53.785Z,97967.88
2022-12-08T10:20:23.661Z,97959.22
2022-12-08T10:23:08.191Z,97949.13
2022-12-08T10:25:41.452Z,97959.63
2022-12-08T10:28:10.088Z,97943.94
2022-12-08T10:30:37.229Z,97937.03
2022-12-08T10:33:04.418Z,97948.03
2022-12-08T10:35:46.541Z,97946.72
2022-12-08T10:38:38.287Z,97951.13
2022-12-08T10:41:11.118Z,97942.81
2022-12-08T10:43:58.115Z,97948.13
2022-12-08T10:46:27.394Z,97947.97
2022-12-08T10:48:54.084Z,97941.91
2022-12-08T10:51:30.439Z,97945.00
2022-12-08T10:53:57.943Z,97926.69
2022-12-08T10:56:27.893Z,97921.38
2022-12-08T10:59:17.671Z,97929.97
2022-12-08T11:01:52.926Z,97943.53
2022-12-08T11:04:33.695Z,97941.69
2022-12-08T11:07:21.062Z,97945.28
2022-12-08T11:09:52.888Z,97947.38
2022-12-08T11:12:21.589Z,97953.84
2022-12-08T11:14:55.042Z,97968.34
2022-12-08T11:17:21.686Z,97922.03
2022-12-08T11:20:02.748Z,97925.66
2022-12-08T11:22:43.346Z,97919.63
2022-12-08T11:25:19.145Z,97923.91
2022-12-08T11:27:48.729Z,97919.41
2022-12-08T11:30:21.863Z,97921.53
2022-12-08T11:32:51.357Z,97922.19
2022-12-08T11:35:27.159Z,97908.88
2022-12-08T11:38:08.124Z,97923.81
2022-12-08T11:40:44.907Z,97902.88
2022-12-08T11:43:29.916Z,97893.94
2022-12-08T11:46:00.877Z,97883.50
2022-12-08T11:48:36.346Z,97900.47
2022-12-08T11:51:32.492Z,97894.47
2022-12-08T11:54:22.405Z,97903.63
2022-12-08T11:56:53.949Z,97891.00
2022-12-08T11:59:30.189Z,97883.94
2022-12-08T12:01:59.654Z,97882.56
2022-12-08T12:04:36.098Z,97891.31
2022-12-08T12:07:24.584Z,97881.88
2022-12-08T12:10:08.002Z,97878.88
2022-12-08T12:12:46.708Z,97878.47
2022-12-08T12:15:31.438Z,97877.19
2022-12-08T12:18:05.245Z,97873.44
2022-12-08T12:20:33.421Z,97880.03
2022-12-08T12:23:05.930Z,97870.66
2022-12-08T12:25:35.512Z,97879.19
2022-12-08T12:28:06.850Z,97858.75
2022-12-08T12:30:53.994Z,97869.63
2022-12-08T12:33:22.467Z,97856.38
2022-12-08T12:35:49.304Z,97881.25
2022-12-08T12:38:44.131Z,97878.72
2022-12-08T12:41:13.666Z,97867.50
2022-12-08T12:43:40.560Z,97874.84
2022-12-08T12:46:25.425Z,97883.22
2022-12-08T12:48:52.569Z,97881.25
2022-12-08T12:51:37.924Z,97875.91
2022-12-08T12:54:22.493Z,97869.78
2022-12-08T12:56:54.845Z,97867.50
2022-12-08T12:59:42.774Z,97849.16
2022-12-08T13:02:26.134Z,97865.38
2022-12-08T13:04:55.685Z,97867.06
2022-12-08T13:07:29.013Z,97858.13
2022-12-08T13:10:01.047Z,97855.63
2022-12-08T13:12:28.292Z,97846.50
2022-12-08T13:15:05.755Z,97852.09
2022-12-08T13:17:36.271Z,97856.69
2022-12-08T13:20:06.242Z,97836.69
2022-12-08T13:22:54.751Z,97857.00
2022-12-08T13:25:42.420Z,97847.75
2022-12-08T13:28:24.522Z,97850.78
2022-12-08T13:30:56.145Z,97854.03
2022-12-08T13:33:27.846Z,97831.22
2022-12-08T13:36:02.173Z,97833.66
2022-12-08T13:38:32.274Z,97829.00
2022-12-08T13:41:01.778Z,97850.81
2022-12-08T13:43:47.449Z,97840.16
2022-12-08T13:58:50.676Z,97842.88
2022-12-08T14:01:23.403Z,97842.38
2022-12-08T14:04:31.003Z,97847.75
2022-12-08T14:06:46.508Z,97845.63
2022-12-08T14:09:20.969Z,97847.63
2022-12-08T14:12:17.252Z,97848.78
2022-12-08T14:15:02.554Z,97856.44
2022-12-08T14:17:30.975Z,97843.72
2022-12-08T14:20:04.664Z,97859.34
2022-12-08T14:22:37.079Z,97849.03
2022-12-08T14:25:06.192Z,97848.34
2022-12-08T14:27:35.993Z,97852.41
2022-12-08T14:30:07.505Z,97850.63
2022-12-08T14:32:40.191Z,97844.63
2022-12-08T14:35:06.937Z,97835.31
2022-12-08T14:37:36.725Z,97847.63
2022-12-08T14:40:25.491Z,97839.00
2022-12-08T14:42:52.082Z,97832.25
2022-12-08T14:45:20.177Z,97840.69
2022-12-08T14:47:48.539Z,97840.84
2022-12-08T14:50:41.385Z,97838.59
2022-12-08T14:53:16.345Z,97824.34
2022-12-08T14:55:45.850Z,97833.53
2022-12-08T14:58:20.233Z,97840.47
2022-12-08T15:00:49.238Z,97842.50
2022-12-08T15:03:17.648Z,97840.53
2022-12-08T15:05:44.358Z,97839.94
2022-12-08T15:08:13.060Z,97849.91
2022-12-08T15:10:40.001Z,97846.84
2022-12-08T15:13:20.048Z,97848.66
2022-12-08T15:15:51.571Z,97851.56
2022-12-08T15:18:22.634Z,97854.13
2022-12-08T15:20:53.414Z,97855.97
2022-12-08T15:23:32.440Z,97851.56
2022-12-08T15:25:59.508Z,97855.00
2022-12-08T15:28:30.364Z,97854.81
2022-12-08T15:30:57.558Z,97846.28
2022-12-08T15:33:24.525Z,97857.84
2022-12-08T15:35:51.923Z,97860.59
2022-12-08T15:38:25.210Z,97847.97
2022-12-08T15:40:52.202Z,97854.25
2022-12-08T15:43:21.240Z,97836.22
2022-12-08T15:45:58.435Z,97837.41
2022-12-08T15:48:29.237Z,97845.09
2022-12-08T15:50:56.340Z,97844.75
2022-12-08T15:53:23.088Z,97847.75
2022-12-08T15:56:18.983Z,97850.13
2022-12-08T15:58:55.070Z,97846.22
2022-12-08T16:01:23.520Z,97843.22
2022-12-08T16:09:31.381Z,97837.06
2022-12-08T16:12:17.243Z,97838.25
2022-12-08T16:17:31.657Z,97824.13
2022-12-08T16:19:58.698Z,97848.44
2022-12-08T16:25:18.815Z,97846.75
2022-12-08T16:28:23.212Z,97849.84
2022-12-08T16:30:35.687Z,97849.00
2022-12-08T16:33:02.382Z,97832.06
2022-12-08T16:35:29.805Z,97824.28
2022-12-08T16:37:56.753Z,97816.13
2022-12-08T16:40:23.521Z,97813.50
2022-12-08T16:42:50.538Z,97826.22
2022-12-08T16:45:28.505Z,97835.69
2022-12-08T16:48:04.610Z,97824.56
2022-12-08T16:50:34.857Z,97838.69
2022-12-08T16:53:07.277Z,97831.47
2022-12-08T16:55:34.138Z,97809.84
2022-12-08T16:58:02.634Z,97834.84
2022-12-08T17:00:31.370Z,97830.25
2022-12-08T17:02:59.047Z,97830.94
2022-12-08T17:05:27.101Z,97837.53
2022-12-08T17:07:54.377Z,97834.50
2022-12-08T17:10:27.794Z,97835.22
2022-12-08T17:12:56.211Z,97824.63
2022-12-08T17:15:25.556Z,97826.81
2022-12-08T17:17:52.579Z,97836.84
2022-12-08T17:20:25.308Z,97837.84
2022-12-08T17:22:57.752Z,97831.19
2022-12-08T17:25:26.200Z,97829.22
2022-12-08T17:27:52.970Z,97822.19
2022-12-08T17:30:19.843Z,97831.69
2022-12-08T17:32:46.721Z,97816.78
2022-12-08T17:35:14.316Z,97820.16
2022-12-08T17:37:41.198Z,97816.66
2022-12-08T17:40:08.929Z,97807.88
2022-12-08T17:42:35.822Z,97817.69
2022-12-08T17:45:02.902Z,97820.22
2022-12-08T17:47:29.958Z,97803.50
2022-12-08T17:49:56.997Z,97819.03
2022-12-08T17:52:23.785Z,97821.34
2022-12-08T17:54:50.598Z,97828.28
2022-12-08T17:57:17.240Z,97819.28
2022-12-08T17:59:43.973Z,97821.91
2022-12-08T18:02:12.116Z,97818.75
2022-12-08T18:04:57.995Z,97814.47
2022-12-08T18:07:44.983Z,97825.84
2022-12-08T18:10:32.062Z,97819.84
2022-12-08T18:13:19.095Z,97815.00
2022-12-08T18:16:06.244Z,97811.34
2022-12-08T18:18:53.415Z,97800.56
2022-12-08T18:21:41.904Z,97799.56
2022-12-08T18:24:29.082Z,97797.56
2022-12-08T18:27:16.202Z,97804.47
2022-12-08T18:30:03.668Z,97815.44
2022-12-08T18:32:57.041Z,97816.00
2022-12-08T18:35:44.346Z,97824.84
2022-12-08T18:38:31.386Z,97810.03
2022-12-08T18:41:25.945Z,97808.16
2022-12-08T18:44:13.005Z,97806.28
2022-12-08T18:47:00.002Z,97806.66
2022-12-08T18:49:47.047Z,97810.00
2022-12-08T18:52:34.470Z,97805.94
2022-12-08T18:55:21.432Z,97805.47
2022-12-08T18:58:10.907Z,97800.25
2022-12-08T19:00:58.144Z,97795.50
2022-12-08T19:03:58.526Z,97797.06
2022-12-08T19:06:52.905Z,97792.06
2022-12-08T19:09:40.273Z,97791.75
2022-12-08T19:12:27.666Z,97790.47
2022-12-08T19:15:14.747Z,97782.81
2022-12-08T19:18:02.154Z,97791.88
2022-12-08T19:20:49.141Z,97787.91
2022-12-08T19:23:36.249Z,97787.41
2022-12-08T19:26:23.276Z,97779.94
2022-12-08T19:29:10.692Z,97783.09
2022-12-08T19:31:57.947Z,97803.81
2022-12-08T19:34:44.891Z,97790.78
2022-12-08T19:37:31.854Z,97796.53
2022-12-08T19:40:37.385Z,97762.00
2022-12-08T19:43:33.431Z,97785.91
2022-12-08T19:46:23.453Z,97780.19
2022-12-08T19:49:10.484Z,97789.72
2022-12-08T19:51:57.929Z,97786.53
2022-12-08T19:54:45.734Z,97789.66
2022-12-08T19:57:32.846Z,97778.16
2022-12-08T20:00:20.913Z,97769.09
2022-12-08T20:03:08.954Z,97792.25
2022-12-08T20:05:56.013Z,97793.31
2022-12-08T20:08:50.271Z,97779.84
2022-12-08T20:11:38.849Z,97789.16
2022-12-08T20:14:25.876Z,97796.38
2022-12-08T20:17:12.947Z,97792.06
2022-12-08T20:20:05.368Z,97787.09
2022-12-08T20:22:54.048Z,97789.50
2022-12-08T20:25:42.878Z,97782.31
2022-12-08T20:28:30.203Z,97784.69
